Terminal Aerodrome Forecast
Issued by NWS

Home | Current Version | Previous Version | Text Only | Print | Product List | Glossary On
Versions: 1 2 3 4 5 6 7 8 9 10
000
FTUS44 KMAF 272300
TAFPEQ
TAF
KPEQ 272328Z 2800/2824 01005KT P6SM BKN015
      TEMPO 2800/2804 6SM -RASN BR BKN010
     FM281600 24011KT P6SM SKC=

USA.gov is the U.S. government's official web portal to all federal, state and local government web resources and services.